SWR56Z LSZH-LICJ
Flight info
| Callsign | SWR56Z |
|---|---|
| Flight time | 1h 30m |
| Altitude | 34000 |
| Route | VEBIT T53 GERSA DCT SOSON DCT ODINA DCT BAKRO/N0449F350 DCT GIANO |
| Aircraft | A321/M-SDE3FGHIRWY/LB1 |
Departure
| Time | 2026-02-20 09:45 |
|---|---|
| Airport | Zürich Airport (LSZH) |
Arrival
| Time | 2026-02-20 11:15 |
|---|---|
| Airport | Falcone–Borsellino Airport (LICJ) |
| Time | Latitude | Longitude | Altitude | Speed | Heading |
|---|---|---|---|---|---|
| 2026-02-20 09:24 | 47.45333 | 8.55943 | 1407 ft | 0 kts | 6° |
| 2026-02-20 09:33 | 47.45320 | 8.55941 | 1413 ft | 3 kts | 6° |
| 2026-02-20 09:34 | 47.45300 | 8.55938 | 1413 ft | 3 kts | 6° |
| 2026-02-20 09:34 | 47.45282 | 8.55935 | 1413 ft | 2 kts | 6° |
| 2026-02-20 09:34 | 47.45266 | 8.55934 | 1415 ft | 3 kts | 340° |
| 2026-02-20 09:34 | 47.45252 | 8.55947 | 1414 ft | 3 kts | 292° |
| 2026-02-20 09:35 | 47.45248 | 8.55968 | 1413 ft | 2 kts | 277° |
| 2026-02-20 09:37 | 47.45250 | 8.55935 | 1413 ft | 7 kts | 275° |
| 2026-02-20 09:37 | 47.45255 | 8.55865 | 1415 ft | 6 kts | 275° |
| 2026-02-20 09:37 | 47.45262 | 8.55757 | 1407 ft | 13 kts | 276° |
| 2026-02-20 09:38 | 47.45270 | 8.55654 | 1407 ft | 7 kts | 276° |
| 2026-02-20 09:38 | 47.45277 | 8.55591 | 1410 ft | 8 kts | 288° |
| 2026-02-20 09:38 | 47.45311 | 8.55560 | 1409 ft | 6 kts | 333° |
| 2026-02-20 09:38 | 47.45378 | 8.55508 | 1410 ft | 13 kts | 334° |
| 2026-02-20 09:39 | 47.45488 | 8.55434 | 1408 ft | 18 kts | 335° |
| 2026-02-20 09:39 | 47.45594 | 8.55359 | 1405 ft | 15 kts | 334° |
| 2026-02-20 09:39 | 47.45658 | 8.55346 | 1399 ft | 6 kts | 33° |
| 2026-02-20 09:39 | 47.45670 | 8.55394 | 1400 ft | 8 kts | 85° |
| 2026-02-20 09:40 | 47.45663 | 8.55514 | 1402 ft | 15 kts | 96° |
| 2026-02-20 09:40 | 47.45651 | 8.55681 | 1405 ft | 18 kts | 95° |
| 2026-02-20 09:40 | 47.45637 | 8.55879 | 1409 ft | 20 kts | 96° |
| 2026-02-20 09:40 | 47.45624 | 8.56074 | 1411 ft | 18 kts | 96° |
| 2026-02-20 09:41 | 47.45611 | 8.56261 | 1413 ft | 19 kts | 96° |
| 2026-02-20 09:41 | 47.45597 | 8.56450 | 1416 ft | 20 kts | 95° |
| 2026-02-20 09:41 | 47.45584 | 8.56629 | 1419 ft | 14 kts | 96° |
| 2026-02-20 09:41 | 47.45573 | 8.56777 | 1422 ft | 13 kts | 95° |
| 2026-02-20 09:42 | 47.45565 | 8.56900 | 1420 ft | 11 kts | 96° |
| 2026-02-20 09:42 | 47.45562 | 8.56936 | 1420 ft | 0 kts | 96° |
| 2026-02-20 09:43 | 47.45572 | 8.56992 | 1421 ft | 9 kts | 54° |
| 2026-02-20 09:43 | 47.45595 | 8.57015 | 1423 ft | 1 kts | 20° |
| 2026-02-20 09:43 | 47.45637 | 8.57025 | 1425 ft | 8 kts | 6° |
| 2026-02-20 09:43 | 47.45663 | 8.57008 | 1425 ft | 1 kts | 291° |
| 2026-02-20 09:44 | 47.45662 | 8.57001 | 1425 ft | 2 kts | 272° |
| 2026-02-20 09:44 | 47.45663 | 8.56994 | 1424 ft | 0 kts | 276° |
| 2026-02-20 09:44 | 47.45665 | 8.56971 | 1424 ft | 17 kts | 276° |
| 2026-02-20 09:45 | 47.45707 | 8.56379 | 1419 ft | 95 kts | 276° |
| 2026-02-20 09:45 | 47.45798 | 8.55097 | 1402 ft | 154 kts | 276° |
| 2026-02-20 09:45 | 47.45921 | 8.53509 | 2097 ft | 150 kts | 278° |
| 2026-02-20 09:45 | 47.46035 | 8.51975 | 2917 ft | 151 kts | 276° |
| 2026-02-20 09:46 | 47.46148 | 8.50367 | 3327 ft | 167 kts | 276° |
| 2026-02-20 09:46 | 47.46243 | 8.48559 | 3549 ft | 187 kts | 268° |
| 2026-02-20 09:46 | 47.45660 | 8.46757 | 3676 ft | 212 kts | 227° |
| 2026-02-20 09:46 | 47.44476 | 8.45247 | 3914 ft | 235 kts | 223° |
| 2026-02-20 09:47 | 47.43288 | 8.43476 | 4362 ft | 251 kts | 232° |
| 2026-02-20 09:47 | 47.42204 | 8.41419 | 5169 ft | 256 kts | 236° |
| 2026-02-20 09:47 | 47.41172 | 8.39304 | 6037 ft | 259 kts | 237° |
| 2026-02-20 09:47 | 47.40119 | 8.37126 | 6875 ft | 263 kts | 235° |
| 2026-02-20 09:48 | 47.38747 | 8.35299 | 7638 ft | 273 kts | 211° |
| 2026-02-20 09:48 | 47.36910 | 8.34518 | 8428 ft | 282 kts | 183° |
| 2026-02-20 09:48 | 47.34981 | 8.35095 | 9220 ft | 290 kts | 154° |
| 2026-02-20 09:48 | 47.33222 | 8.36582 | 10068 ft | 292 kts | 149° |
| 2026-02-20 09:49 | 47.31455 | 8.38159 | 10591 ft | 307 kts | 149° |
| 2026-02-20 09:49 | 47.29568 | 8.39852 | 10836 ft | 330 kts | 148° |
| 2026-02-20 09:49 | 47.27558 | 8.41648 | 11302 ft | 342 kts | 148° |
| 2026-02-20 09:49 | 47.25505 | 8.43468 | 11985 ft | 347 kts | 148° |
| 2026-02-20 09:50 | 47.23414 | 8.45308 | 12704 ft | 352 kts | 148° |
| 2026-02-20 09:50 | 47.21296 | 8.47166 | 13412 ft | 357 kts | 147° |
| 2026-02-20 09:50 | 47.19146 | 8.49049 | 14106 ft | 362 kts | 147° |
| 2026-02-20 09:50 | 47.16865 | 8.50685 | 14694 ft | 369 kts | 158° |
| 2026-02-20 09:51 | 47.14365 | 8.51674 | 15286 ft | 376 kts | 169° |
| 2026-02-20 09:51 | 47.11741 | 8.52087 | 15896 ft | 381 kts | 173° |
| 2026-02-20 09:51 | 47.09090 | 8.52450 | 16514 ft | 385 kts | 173° |
| 2026-02-20 09:51 | 47.06404 | 8.52830 | 17092 ft | 390 kts | 173° |
| 2026-02-20 09:52 | 47.03683 | 8.53228 | 17714 ft | 395 kts | 173° |
| 2026-02-20 09:52 | 47.00929 | 8.53635 | 18323 ft | 400 kts | 173° |
| 2026-02-20 09:52 | 46.98141 | 8.54045 | 18859 ft | 405 kts | 173° |
| 2026-02-20 09:52 | 46.95328 | 8.54455 | 19375 ft | 409 kts | 173° |
| 2026-02-20 09:53 | 46.92477 | 8.54869 | 19882 ft | 413 kts | 173° |
| 2026-02-20 09:53 | 46.89647 | 8.55277 | 20312 ft | 417 kts | 173° |
| 2026-02-20 09:53 | 46.86748 | 8.55693 | 20834 ft | 420 kts | 173° |
| 2026-02-20 09:53 | 46.83826 | 8.56110 | 21344 ft | 424 kts | 173° |
| 2026-02-20 09:54 | 46.80877 | 8.56529 | 21838 ft | 427 kts | 173° |
| 2026-02-20 09:54 | 46.77899 | 8.56956 | 22337 ft | 431 kts | 173° |
| 2026-02-20 09:54 | 46.74897 | 8.57388 | 22779 ft | 434 kts | 173° |
| 2026-02-20 09:54 | 46.71882 | 8.57822 | 23242 ft | 437 kts | 173° |
| 2026-02-20 09:55 | 46.68836 | 8.58263 | 23684 ft | 441 kts | 173° |
| 2026-02-20 09:55 | 46.65764 | 8.58705 | 24023 ft | 446 kts | 173° |
| 2026-02-20 09:55 | 46.63716 | 8.58997 | 24248 ft | 448 kts | 173° |
| 2026-02-20 09:55 | 46.60594 | 8.59438 | 24593 ft | 453 kts | 173° |
| 2026-02-20 09:56 | 46.57445 | 8.59879 | 24933 ft | 457 kts | 173° |
| 2026-02-20 09:56 | 46.54273 | 8.60326 | 25277 ft | 461 kts | 173° |
| 2026-02-20 09:56 | 46.51070 | 8.60780 | 25624 ft | 465 kts | 173° |
| 2026-02-20 09:56 | 46.47837 | 8.61240 | 25922 ft | 469 kts | 173° |
| 2026-02-20 09:57 | 46.44568 | 8.61702 | 26225 ft | 474 kts | 173° |
| 2026-02-20 09:57 | 46.41271 | 8.62168 | 26580 ft | 478 kts | 173° |
| 2026-02-20 09:57 | 46.37942 | 8.62637 | 26884 ft | 483 kts | 173° |
| 2026-02-20 09:57 | 46.34580 | 8.63110 | 27093 ft | 488 kts | 173° |
| 2026-02-20 09:58 | 46.31183 | 8.63587 | 27411 ft | 492 kts | 173° |
| 2026-02-20 09:58 | 46.27762 | 8.64065 | 27676 ft | 496 kts | 173° |
| 2026-02-20 09:58 | 46.24310 | 8.64548 | 27962 ft | 500 kts | 173° |
| 2026-02-20 09:58 | 46.20828 | 8.65037 | 28233 ft | 506 kts | 173° |
| 2026-02-20 09:59 | 46.17309 | 8.65532 | 28536 ft | 510 kts | 173° |
| 2026-02-20 09:59 | 46.13786 | 8.66029 | 28779 ft | 514 kts | 173° |
| 2026-02-20 09:59 | 46.10213 | 8.66757 | 29021 ft | 517 kts | 166° |
| 2026-02-20 09:59 | 46.06786 | 8.68083 | 29231 ft | 519 kts | 159° |
| 2026-02-20 10:00 | 46.03323 | 8.69623 | 29519 ft | 523 kts | 159° |
| 2026-02-20 10:00 | 45.99835 | 8.71173 | 29775 ft | 527 kts | 159° |
| 2026-02-20 10:00 | 45.96312 | 8.72734 | 29958 ft | 532 kts | 159° |
| 2026-02-20 10:00 | 45.92764 | 8.74299 | 30178 ft | 536 kts | 159° |
| 2026-02-20 10:01 | 45.89182 | 8.75868 | 30391 ft | 539 kts | 160° |
| 2026-02-20 10:01 | 45.85584 | 8.77444 | 30660 ft | 541 kts | 160° |
| 2026-02-20 10:01 | 45.81970 | 8.79024 | 30847 ft | 544 kts | 160° |
| 2026-02-20 10:01 | 45.78349 | 8.80601 | 31163 ft | 545 kts | 160° |
| 2026-02-20 10:02 | 45.74721 | 8.82177 | 31557 ft | 544 kts | 160° |
| 2026-02-20 10:02 | 45.71097 | 8.83749 | 31931 ft | 544 kts | 160° |
| 2026-02-20 10:02 | 45.67483 | 8.85316 | 32315 ft | 543 kts | 161° |
| 2026-02-20 10:02 | 45.63867 | 8.86891 | 32741 ft | 542 kts | 161° |
| 2026-02-20 10:03 | 45.60269 | 8.88461 | 33170 ft | 540 kts | 161° |
| 2026-02-20 10:03 | 45.56673 | 8.90025 | 33599 ft | 538 kts | 161° |
| 2026-02-20 10:03 | 45.53096 | 8.91572 | 33982 ft | 537 kts | 161° |
| 2026-02-20 10:03 | 45.49523 | 8.93111 | 34345 ft | 535 kts | 161° |
| 2026-02-20 10:04 | 45.45974 | 8.94633 | 34782 ft | 530 kts | 162° |
| 2026-02-20 10:04 | 45.42457 | 8.96142 | 35207 ft | 526 kts | 162° |
| 2026-02-20 10:04 | 45.38967 | 8.97644 | 35629 ft | 522 kts | 162° |
| 2026-02-20 10:04 | 45.35496 | 8.99141 | 35877 ft | 519 kts | 162° |
| 2026-02-20 10:05 | 45.32064 | 9.00621 | 35931 ft | 513 kts | 162° |
| 2026-02-20 10:05 | 45.25267 | 9.03549 | 35866 ft | 509 kts | 162° |
| 2026-02-20 10:06 | 45.18489 | 9.06441 | 35854 ft | 507 kts | 162° |
| 2026-02-20 10:06 | 45.11724 | 9.09316 | 35838 ft | 507 kts | 162° |
| 2026-02-20 10:07 | 45.04972 | 9.12202 | 35835 ft | 506 kts | 162° |
| 2026-02-20 10:07 | 44.98227 | 9.15078 | 35837 ft | 506 kts | 162° |
| 2026-02-20 10:08 | 44.91481 | 9.17936 | 35863 ft | 506 kts | 163° |
| 2026-02-20 10:08 | 44.84728 | 9.20773 | 35885 ft | 506 kts | 163° |
| 2026-02-20 10:09 | 44.77985 | 9.23597 | 35911 ft | 505 kts | 163° |
| 2026-02-20 10:09 | 44.71250 | 9.26424 | 35926 ft | 504 kts | 163° |
| 2026-02-20 10:10 | 44.64577 | 9.29237 | 35930 ft | 503 kts | 163° |
| 2026-02-20 10:10 | 44.57869 | 9.32059 | 35922 ft | 503 kts | 163° |
| 2026-02-20 10:11 | 44.51164 | 9.34854 | 35918 ft | 502 kts | 163° |
| 2026-02-20 10:11 | 44.44467 | 9.37631 | 35915 ft | 502 kts | 163° |
| 2026-02-20 10:12 | 44.37780 | 9.40418 | 35917 ft | 501 kts | 164° |
| 2026-02-20 10:12 | 44.31101 | 9.43191 | 35913 ft | 500 kts | 164° |
| 2026-02-20 10:13 | 44.24420 | 9.45938 | 35923 ft | 500 kts | 164° |
| 2026-02-20 10:13 | 44.17746 | 9.48686 | 35918 ft | 500 kts | 164° |
| 2026-02-20 10:14 | 44.11078 | 9.51428 | 35924 ft | 499 kts | 164° |
| 2026-02-20 10:14 | 44.04416 | 9.54163 | 35925 ft | 499 kts | 165° |
| 2026-02-20 10:15 | 43.97755 | 9.56891 | 35935 ft | 499 kts | 165° |
| 2026-02-20 10:15 | 43.91130 | 9.59601 | 35940 ft | 499 kts | 165° |
| 2026-02-20 10:16 | 43.84479 | 9.62314 | 35952 ft | 498 kts | 165° |
| 2026-02-20 10:16 | 43.77827 | 9.65023 | 35948 ft | 498 kts | 165° |
| 2026-02-20 10:17 | 43.71231 | 9.67696 | 35956 ft | 497 kts | 165° |
| 2026-02-20 10:17 | 43.64587 | 9.70384 | 35958 ft | 497 kts | 165° |
| 2026-02-20 10:18 | 43.57949 | 9.73066 | 35966 ft | 497 kts | 165° |
| 2026-02-20 10:18 | 43.52433 | 9.75288 | 35961 ft | 496 kts | 166° |
| 2026-02-20 10:19 | 43.44693 | 9.78399 | 35964 ft | 495 kts | 166° |
| 2026-02-20 10:19 | 43.38094 | 9.81044 | 35960 ft | 494 kts | 166° |
| 2026-02-20 10:20 | 43.31502 | 9.83686 | 35967 ft | 493 kts | 166° |
| 2026-02-20 10:20 | 43.24933 | 9.86312 | 35968 ft | 491 kts | 166° |
| 2026-02-20 10:21 | 43.18446 | 9.89036 | 35969 ft | 491 kts | 160° |
| 2026-02-20 10:21 | 43.12231 | 9.92938 | 35967 ft | 491 kts | 156° |
| 2026-02-20 10:22 | 43.06044 | 9.96872 | 35969 ft | 489 kts | 157° |
| 2026-02-20 10:22 | 42.99878 | 10.00779 | 35966 ft | 488 kts | 157° |
| 2026-02-20 10:23 | 42.93722 | 10.04684 | 35967 ft | 487 kts | 157° |
| 2026-02-20 10:23 | 42.87579 | 10.08561 | 35965 ft | 485 kts | 158° |
| 2026-02-20 10:24 | 42.81457 | 10.12413 | 35968 ft | 484 kts | 158° |
| 2026-02-20 10:24 | 42.75355 | 10.16256 | 35953 ft | 484 kts | 157° |
| 2026-02-20 10:25 | 42.69263 | 10.20118 | 35958 ft | 482 kts | 158° |
| 2026-02-20 10:25 | 42.63163 | 10.23907 | 35959 ft | 482 kts | 159° |
| 2026-02-20 10:26 | 42.57074 | 10.27684 | 35963 ft | 481 kts | 159° |
| 2026-02-20 10:26 | 42.51001 | 10.31474 | 35956 ft | 480 kts | 159° |
| 2026-02-20 10:27 | 42.44980 | 10.35228 | 35960 ft | 479 kts | 159° |
| 2026-02-20 10:27 | 42.38926 | 10.38977 | 35958 ft | 478 kts | 159° |
| 2026-02-20 10:28 | 42.32880 | 10.42717 | 35956 ft | 477 kts | 159° |
| 2026-02-20 10:28 | 42.26844 | 10.46447 | 35952 ft | 476 kts | 159° |
| 2026-02-20 10:29 | 42.20816 | 10.50161 | 35957 ft | 475 kts | 160° |
| 2026-02-20 10:29 | 42.14804 | 10.53859 | 35955 ft | 474 kts | 160° |
| 2026-02-20 10:30 | 42.08804 | 10.57548 | 35956 ft | 473 kts | 160° |
| 2026-02-20 10:30 | 42.02811 | 10.61221 | 35955 ft | 472 kts | 160° |
| 2026-02-20 10:31 | 41.96837 | 10.64880 | 35961 ft | 471 kts | 160° |
| 2026-02-20 10:31 | 41.90924 | 10.68491 | 35961 ft | 469 kts | 160° |
| 2026-02-20 10:32 | 41.84989 | 10.72100 | 35957 ft | 467 kts | 161° |
| 2026-02-20 10:32 | 41.79071 | 10.75700 | 35954 ft | 466 kts | 161° |
| 2026-02-20 10:33 | 41.73169 | 10.79285 | 35955 ft | 465 kts | 161° |
| 2026-02-20 10:33 | 41.67279 | 10.82847 | 35952 ft | 464 kts | 161° |
| 2026-02-20 10:34 | 41.61394 | 10.86395 | 35948 ft | 464 kts | 161° |
| 2026-02-20 10:34 | 41.55519 | 10.89934 | 35945 ft | 463 kts | 161° |
| 2026-02-20 10:35 | 41.49649 | 10.93470 | 35943 ft | 462 kts | 162° |
| 2026-02-20 10:35 | 41.43787 | 10.96991 | 35942 ft | 462 kts | 162° |
| 2026-02-20 10:36 | 41.37935 | 11.00499 | 35941 ft | 461 kts | 162° |
| 2026-02-20 10:36 | 41.32078 | 11.04003 | 35940 ft | 461 kts | 162° |
| 2026-02-20 10:37 | 41.26230 | 11.07501 | 35938 ft | 460 kts | 162° |
| 2026-02-20 10:37 | 41.20430 | 11.10955 | 35928 ft | 459 kts | 163° |
| 2026-02-20 10:38 | 41.14597 | 11.14418 | 35929 ft | 459 kts | 163° |
| 2026-02-20 10:38 | 41.08778 | 11.17868 | 35929 ft | 458 kts | 163° |
| 2026-02-20 10:39 | 41.02955 | 11.21311 | 35925 ft | 457 kts | 163° |
| 2026-02-20 10:39 | 40.97148 | 11.24738 | 35933 ft | 457 kts | 163° |
| 2026-02-20 10:40 | 40.91343 | 11.28163 | 35934 ft | 456 kts | 163° |
| 2026-02-20 10:40 | 40.85552 | 11.31576 | 35930 ft | 456 kts | 163° |
| 2026-02-20 10:41 | 40.79762 | 11.34981 | 35930 ft | 455 kts | 163° |
| 2026-02-20 10:41 | 40.73979 | 11.38375 | 35931 ft | 455 kts | 164° |
| 2026-02-20 10:42 | 40.68203 | 11.41753 | 35932 ft | 454 kts | 164° |
| 2026-02-20 10:42 | 40.62427 | 11.45123 | 35923 ft | 454 kts | 164° |
| 2026-02-20 10:43 | 40.56691 | 11.48471 | 35916 ft | 454 kts | 164° |
| 2026-02-20 10:43 | 40.48031 | 11.53509 | 35915 ft | 453 kts | 164° |
| 2026-02-20 10:44 | 40.43242 | 11.56292 | 35911 ft | 452 kts | 165° |
| 2026-02-20 10:44 | 40.37487 | 11.59627 | 35904 ft | 452 kts | 165° |
| 2026-02-20 10:45 | 40.31736 | 11.62944 | 35905 ft | 451 kts | 165° |
| 2026-02-20 10:45 | 40.25989 | 11.66262 | 35894 ft | 451 kts | 165° |
| 2026-02-20 10:46 | 40.20249 | 11.69578 | 35898 ft | 451 kts | 165° |
| 2026-02-20 10:46 | 40.14507 | 11.72884 | 35889 ft | 451 kts | 165° |
| 2026-02-20 10:47 | 40.08769 | 11.76180 | 35896 ft | 450 kts | 165° |
| 2026-02-20 10:47 | 40.03030 | 11.79466 | 35894 ft | 450 kts | 165° |
| 2026-02-20 10:48 | 39.97298 | 11.82748 | 35903 ft | 450 kts | 165° |
| 2026-02-20 10:48 | 39.91570 | 11.86018 | 35896 ft | 449 kts | 165° |
| 2026-02-20 10:49 | 39.85847 | 11.89290 | 35900 ft | 448 kts | 165° |
| 2026-02-20 10:49 | 39.80129 | 11.92544 | 35672 ft | 448 kts | 165° |
| 2026-02-20 10:50 | 39.77272 | 11.94164 | 35412 ft | 447 kts | 166° |
| 2026-02-20 10:50 | 39.74458 | 11.95758 | 35168 ft | 447 kts | 166° |
| 2026-02-20 10:50 | 39.71611 | 11.97370 | 34921 ft | 447 kts | 166° |
| 2026-02-20 10:50 | 39.68758 | 11.98985 | 34670 ft | 447 kts | 166° |
| 2026-02-20 10:51 | 39.65909 | 12.00593 | 34418 ft | 446 kts | 166° |
| 2026-02-20 10:51 | 39.63060 | 12.02207 | 34189 ft | 447 kts | 166° |
| 2026-02-20 10:51 | 39.60214 | 12.03821 | 33953 ft | 447 kts | 166° |
| 2026-02-20 10:51 | 39.57363 | 12.05435 | 33671 ft | 447 kts | 166° |
| 2026-02-20 10:52 | 39.54513 | 12.07042 | 33395 ft | 447 kts | 166° |
| 2026-02-20 10:52 | 39.51660 | 12.08648 | 33121 ft | 447 kts | 166° |
| 2026-02-20 10:52 | 39.48808 | 12.10247 | 32848 ft | 446 kts | 166° |
| 2026-02-20 10:52 | 39.45969 | 12.11836 | 32571 ft | 444 kts | 166° |
| 2026-02-20 10:53 | 39.43145 | 12.13423 | 32304 ft | 441 kts | 166° |
| 2026-02-20 10:53 | 39.40334 | 12.15007 | 32043 ft | 439 kts | 166° |
| 2026-02-20 10:53 | 39.37537 | 12.16583 | 31778 ft | 437 kts | 166° |
| 2026-02-20 10:53 | 39.34758 | 12.18147 | 31510 ft | 435 kts | 166° |
| 2026-02-20 10:54 | 39.31988 | 12.19702 | 31198 ft | 433 kts | 166° |
| 2026-02-20 10:54 | 39.29215 | 12.21253 | 30546 ft | 434 kts | 166° |
| 2026-02-20 10:54 | 39.26442 | 12.22803 | 29893 ft | 434 kts | 166° |
| 2026-02-20 10:54 | 39.23670 | 12.24347 | 29136 ft | 434 kts | 166° |
| 2026-02-20 10:55 | 39.20902 | 12.25889 | 28417 ft | 433 kts | 165° |
| 2026-02-20 10:55 | 39.18138 | 12.27429 | 27709 ft | 432 kts | 165° |
| 2026-02-20 10:55 | 39.15414 | 12.28945 | 27037 ft | 431 kts | 165° |
| 2026-02-20 10:55 | 39.12668 | 12.30475 | 26356 ft | 430 kts | 165° |
| 2026-02-20 10:56 | 39.09929 | 12.32003 | 25702 ft | 428 kts | 165° |
| 2026-02-20 10:56 | 39.07203 | 12.33519 | 25060 ft | 426 kts | 164° |
| 2026-02-20 10:56 | 39.04483 | 12.35028 | 24437 ft | 424 kts | 164° |
| 2026-02-20 10:56 | 39.01774 | 12.36528 | 23818 ft | 423 kts | 164° |
| 2026-02-20 10:57 | 38.99078 | 12.38017 | 23153 ft | 421 kts | 164° |
| 2026-02-20 10:57 | 38.96395 | 12.39501 | 22448 ft | 418 kts | 164° |
| 2026-02-20 10:57 | 38.93793 | 12.41207 | 21753 ft | 425 kts | 152° |
| 2026-02-20 10:57 | 38.91589 | 12.43798 | 21069 ft | 437 kts | 134° |
| 2026-02-20 10:58 | 38.89834 | 12.46997 | 20409 ft | 438 kts | 130° |
| 2026-02-20 10:58 | 38.88146 | 12.50221 | 20051 ft | 429 kts | 129° |
| 2026-02-20 10:58 | 38.86524 | 12.53356 | 19935 ft | 413 kts | 129° |
| 2026-02-20 10:58 | 38.84972 | 12.56362 | 19912 ft | 398 kts | 130° |
| 2026-02-20 10:59 | 38.83471 | 12.59254 | 19580 ft | 392 kts | 130° |
| 2026-02-20 10:59 | 38.81962 | 12.62139 | 19241 ft | 388 kts | 130° |
| 2026-02-20 10:59 | 38.80458 | 12.64999 | 18905 ft | 386 kts | 130° |
| 2026-02-20 10:59 | 38.78958 | 12.67841 | 18564 ft | 384 kts | 130° |
| 2026-02-20 11:00 | 38.77463 | 12.70664 | 18234 ft | 382 kts | 130° |
| 2026-02-20 11:00 | 38.75976 | 12.73469 | 17864 ft | 380 kts | 130° |
| 2026-02-20 11:00 | 38.74493 | 12.76263 | 17488 ft | 378 kts | 130° |
| 2026-02-20 11:00 | 38.73020 | 12.79039 | 17114 ft | 376 kts | 130° |
| 2026-02-20 11:01 | 38.71554 | 12.81799 | 16750 ft | 374 kts | 130° |
| 2026-02-20 11:01 | 38.70099 | 12.84552 | 16392 ft | 372 kts | 130° |
| 2026-02-20 11:01 | 38.68655 | 12.87293 | 16036 ft | 370 kts | 130° |
| 2026-02-20 11:01 | 38.67223 | 12.90010 | 15615 ft | 367 kts | 130° |
| 2026-02-20 11:02 | 38.65797 | 12.92705 | 15187 ft | 365 kts | 130° |
| 2026-02-20 11:02 | 38.64374 | 12.95384 | 14752 ft | 364 kts | 130° |
| 2026-02-20 11:02 | 38.62953 | 12.98052 | 14312 ft | 363 kts | 130° |
| 2026-02-20 11:02 | 38.61533 | 13.00725 | 13872 ft | 362 kts | 130° |
| 2026-02-20 11:03 | 38.60118 | 13.03387 | 13388 ft | 362 kts | 130° |
| 2026-02-20 11:03 | 38.58707 | 13.06040 | 12943 ft | 360 kts | 130° |
| 2026-02-20 11:03 | 38.57297 | 13.08681 | 12488 ft | 359 kts | 130° |
| 2026-02-20 11:03 | 38.55893 | 13.11309 | 12049 ft | 357 kts | 130° |
| 2026-02-20 11:04 | 38.54495 | 13.13928 | 11590 ft | 355 kts | 130° |
| 2026-02-20 11:04 | 38.53110 | 13.16521 | 11144 ft | 353 kts | 130° |
| 2026-02-20 11:04 | 38.51747 | 13.19072 | 10700 ft | 351 kts | 130° |
| 2026-02-20 11:04 | 38.50373 | 13.21640 | 10257 ft | 349 kts | 130° |
| 2026-02-20 11:05 | 38.49028 | 13.24155 | 10100 ft | 337 kts | 130° |
| 2026-02-20 11:05 | 38.47731 | 13.26580 | 9975 ft | 325 kts | 130° |
| 2026-02-20 11:05 | 38.46480 | 13.28915 | 9850 ft | 313 kts | 130° |
| 2026-02-20 11:05 | 38.45262 | 13.31184 | 9538 ft | 308 kts | 130° |
| 2026-02-20 11:06 | 38.44056 | 13.33418 | 8955 ft | 305 kts | 130° |
| 2026-02-20 11:06 | 38.42872 | 13.35616 | 8379 ft | 295 kts | 130° |
| 2026-02-20 11:06 | 38.41736 | 13.37737 | 7819 ft | 286 kts | 130° |
| 2026-02-20 11:06 | 38.40628 | 13.39800 | 7278 ft | 277 kts | 131° |
| 2026-02-20 11:07 | 38.39343 | 13.41571 | 6752 ft | 269 kts | 150° |
| 2026-02-20 11:07 | 38.37766 | 13.42678 | 6215 ft | 252 kts | 168° |
| 2026-02-20 11:07 | 38.36127 | 13.43348 | 5657 ft | 244 kts | 169° |
| 2026-02-20 11:07 | 38.34527 | 13.44009 | 5102 ft | 239 kts | 169° |
| 2026-02-20 11:08 | 38.32957 | 13.44663 | 4551 ft | 237 kts | 169° |
| 2026-02-20 11:08 | 38.31392 | 13.45166 | 4073 ft | 219 kts | 187° |
| 2026-02-20 11:08 | 38.30018 | 13.44724 | 4012 ft | 196 kts | 214° |
| 2026-02-20 11:08 | 38.29113 | 13.43560 | 4001 ft | 183 kts | 240° |
| 2026-02-20 11:09 | 38.28600 | 13.42083 | 4007 ft | 181 kts | 245° |
| 2026-02-20 11:09 | 38.28134 | 13.40670 | 3998 ft | 166 kts | 245° |
| 2026-02-20 11:09 | 38.27687 | 13.39315 | 4008 ft | 173 kts | 244° |
| 2026-02-20 11:09 | 38.27200 | 13.37861 | 4014 ft | 181 kts | 244° |
| 2026-02-20 11:10 | 38.26704 | 13.36376 | 4010 ft | 183 kts | 244° |
| 2026-02-20 11:10 | 38.26204 | 13.34880 | 3864 ft | 184 kts | 244° |
| 2026-02-20 11:10 | 38.25710 | 13.33389 | 3607 ft | 183 kts | 245° |
| 2026-02-20 11:10 | 38.25214 | 13.31897 | 3368 ft | 183 kts | 244° |
| 2026-02-20 11:11 | 38.24723 | 13.30420 | 3127 ft | 180 kts | 244° |
| 2026-02-20 11:11 | 38.24243 | 13.28974 | 2880 ft | 173 kts | 243° |
| 2026-02-20 11:11 | 38.23789 | 13.27601 | 2663 ft | 166 kts | 243° |
| 2026-02-20 11:11 | 38.23356 | 13.26303 | 2471 ft | 164 kts | 242° |
| 2026-02-20 11:12 | 38.22907 | 13.24960 | 2238 ft | 165 kts | 242° |
| 2026-02-20 11:12 | 38.22458 | 13.23618 | 2026 ft | 165 kts | 242° |
| 2026-02-20 11:12 | 38.22007 | 13.22275 | 1805 ft | 165 kts | 241° |
| 2026-02-20 11:12 | 38.21559 | 13.20944 | 1576 ft | 163 kts | 242° |
| 2026-02-20 11:13 | 38.21119 | 13.19637 | 1358 ft | 156 kts | 242° |
| 2026-02-20 11:13 | 38.20722 | 13.18441 | 1165 ft | 136 kts | 240° |
| 2026-02-20 11:13 | 38.20365 | 13.17365 | 985 ft | 130 kts | 243° |
| 2026-02-20 11:13 | 38.20013 | 13.16312 | 810 ft | 129 kts | 242° |
| 2026-02-20 11:14 | 38.19654 | 13.15263 | 637 ft | 129 kts | 243° |
| 2026-02-20 11:14 | 38.19302 | 13.14203 | 463 ft | 130 kts | 243° |
| 2026-02-20 11:14 | 38.18944 | 13.13150 | 301 ft | 130 kts | 240° |
| 2026-02-20 11:14 | 38.18593 | 13.12104 | 121 ft | 127 kts | 239° |
| 2026-02-20 11:15 | 38.18268 | 13.11128 | 64 ft | 109 kts | 239° |
| 2026-02-20 11:15 | 38.18036 | 13.10461 | 66 ft | 56 kts | 247° |
| 2026-02-20 11:15 | 38.18010 | 13.10226 | 65 ft | 10 kts | 279° |
| 2026-02-20 11:15 | 38.18027 | 13.10104 | 64 ft | 16 kts | 280° |
| 2026-02-20 11:16 | 38.18041 | 13.09978 | 66 ft | 12 kts | 277° |
| 2026-02-20 11:16 | 38.18076 | 13.09960 | 63 ft | 8 kts | 49° |
| 2026-02-20 11:16 | 38.18119 | 13.10082 | 58 ft | 20 kts | 70° |
| 2026-02-20 11:16 | 38.18171 | 13.10237 | 62 ft | 18 kts | 67° |
| 2026-02-20 11:17 | 38.18212 | 13.10352 | 61 ft | 12 kts | 56° |
| 2026-02-20 11:17 | 38.18285 | 13.10374 | 62 ft | 11 kts | 27° |
| 2026-02-20 11:17 | 38.18322 | 13.10450 | 60 ft | 10 kts | 63° |
| 2026-02-20 11:17 | 38.18375 | 13.10495 | 64 ft | 9 kts | 21° |
| 2026-02-20 11:18 | 38.18433 | 13.10530 | 59 ft | 9 kts | 38° |
| 2026-02-20 11:18 | 38.18462 | 13.10584 | 65 ft | 6 kts | 33° |
| 2026-02-20 11:18 | 38.18513 | 13.10567 | 58 ft | 8 kts | 337° |
| 2026-02-20 11:18 | 38.18528 | 13.10559 | 65 ft | 0 kts | 337° |